»·PEaware :: N1727V KSMX-KBFL

N1727V :: KSMX-KBFL

FLIGHT INFORMATION

Flight Status: Arrived
Operator: Privately registered:
United States
More flights under this callsign
Pilot: James A. (12270)
Aircraft: CESSNA 172 SKYHAWK
(C172)
More flights by this aircraft type
Origin: KSMX Santa Maria Pub/Capt Hancock
United States
Destination: KBFL Meadows
United States
More flights between these airports :: More routes between these airports
Route: +
File this flight plan on PilotEdge
Remarks: CAT5
Altitude:
(Current/Filed)
0ft
Speed:
(Current/Filed)
0kts
Departed: 29-May-17 02:00 PM
Arrived: 29-May-17 02:50 PM
Distance/Time
Traveled:
76nm/0:50
Distance/Time
To Go:
Arrived

Flight Plot

Page will automatically refresh every two minutes.


Map Options




Map Legend


Flown Route
Filed Route
Departure Airport
Arrival Airport
Navaid (VOR, NDB)
Fix

Horizontal Profiles

Position Reports

Time Latitude Longitude Heading Altitude Ground
Speed
29-May-17 13:58 34.896192 -120.445969 158 264ft 0kts
29-May-17 13:59 34.896323 -120.446075 199 264ft 7kts
29-May-17 14:00 34.894679 -120.445373 208 264ft 10kts
29-May-17 14:01 34.893400 -120.445207 182 264ft 0kts
29-May-17 14:02 34.894927 -120.448381 308 308ft 57kts
29-May-17 14:03 34.913911 -120.467939 332 960ft 94kts
29-May-17 14:04 34.927870 -120.441972 79 1889ft 114kts
29-May-17 14:05 34.937703 -120.404628 58 2783ft 121kts
29-May-17 14:06 34.952910 -120.370622 56 3671ft 108kts
29-May-17 14:07 34.967296 -120.340826 56 4555ft 96kts
29-May-17 14:08 34.980960 -120.314203 55 5452ft 89kts
29-May-17 14:09 34.994370 -120.290139 56 6340ft 81kts
29-May-17 14:10 35.008015 -120.267065 56 7243ft 85kts
29-May-17 14:11 35.019591 -120.234642 68 7496ft 117kts
29-May-17 14:12 35.031926 -120.200102 68 7495ft 108kts
29-May-17 14:13 35.043973 -120.166518 68 7501ft 108kts
29-May-17 14:14 35.056695 -120.131065 68 7497ft 116kts
29-May-17 14:15 35.070143 -120.093572 68 7482ft 121kts
29-May-17 14:16 35.083115 -120.057283 68 7498ft 114kts
29-May-17 14:17 35.096848 -120.018936 68 7475ft 125kts
29-May-17 14:18 35.109645 -119.982982 68 7491ft 109kts
29-May-17 14:19 35.122852 -119.946001 68 7463ft 122kts
29-May-17 14:20 35.135767 -119.909678 68 7461ft 113kts
29-May-17 14:21 35.147998 -119.875145 68 7464ft 110kts
29-May-17 14:22 35.160911 -119.838958 68 7459ft 119kts
29-May-17 14:23 35.174614 -119.800585 68 7439ft 124kts
29-May-17 14:24 35.187202 -119.764764 68 7452ft 109kts
29-May-17 14:25 35.199106 -119.729636 68 7502ft 114kts
29-May-17 14:26 35.212115 -119.692462 68 7497ft 120kts
29-May-17 14:27 35.225275 -119.655190 68 7496ft 118kts
29-May-17 14:28 35.238521 -119.617294 68 7490ft 121kts
29-May-17 14:29 35.252140 -119.578479 68 7463ft 123kts
29-May-17 14:30 35.264693 -119.542791 68 7485ft 109kts
29-May-17 14:31 35.277747 -119.505396 68 7499ft 123kts
29-May-17 14:32 35.290926 -119.467864 68 7491ft 121kts
29-May-17 14:33 35.304535 -119.429048 68 7238ft 129kts
29-May-17 14:34 35.318447 -119.389247 68 6682ft 122kts
29-May-17 14:35 35.331439 -119.351613 67 6200ft 119kts
29-May-17 14:36 35.344977 -119.312840 66 5710ft 125kts
29-May-17 14:37 35.357321 -119.274309 75 5223ft 124kts
29-May-17 14:38 35.365926 -119.232393 74 4730ft 126kts
29-May-17 14:39 35.369901 -119.190547 98 4213ft 121kts
29-May-17 14:40 35.355660 -119.152081 120 3706ft 126kts
29-May-17 14:41 35.336980 -119.116085 120 3193ft 114kts
29-May-17 14:42 35.324985 -119.086234 100 2714ft 94kts
29-May-17 14:43 35.322323 -119.053297 90 2250ft 101kts
29-May-17 14:44 35.330666 -119.022418 45 1737ft 101kts
29-May-17 14:45 35.350027 -118.997671 43 1481ft 96kts
29-May-17 14:46 35.372919 -118.994275 16 1522ft 73kts
29-May-17 14:47 35.388375 -119.000767 314 1421ft 60kts
29-May-17 14:48 35.400105 -119.015276 314 1395ft 60kts
29-May-17 14:49 35.411624 -119.029206 311 1157ft 52kts
29-May-17 14:50 35.422036 -119.041855 313 837ft 51kts
29-May-17 14:51 35.432982 -119.054966 316 528ft 46kts
29-May-17 14:52 35.436282 -119.057699 58 510ft 0kts
29-May-17 14:53 35.436284 -119.057696 58 510ft 0kts
29-May-17 14:54 35.436386 -119.057399 86 510ft 7kts
29-May-17 14:55 35.434946 -119.054347 5 510ft 0kts
29-May-17 14:56 35.434986 -119.054343 9 510ft 0kts
29-May-17 14:57 35.434986 -119.054343 9 510ft 0kts
29-May-17 14:58 35.434986 -119.054343 9 510ft 0kts
29-May-17 14:59 35.434988 -119.054342 9 510ft 0kts
29-May-17 15:00 35.434991 -119.054342 9 510ft 0kts

Navigation Log

Ident Type
1. KSMX Airport
2. KBFL Airport